Time;durP1;ratioP1;P1;durP2;ratioP2;P2;SDS_P1;SDS_P2;PMS_P1;PMS_P2;Temp;Humidity;BMP_temperature;BMP_pressure;BME280_temperature;BME280_humidity;BME280_pressure;Samples;Min_cycle;Max_cycle;Signal;HPM_P1;HPM_P2
2023/08/11 00:01:31;;;;;;;5.20;4.00;;;;;;;12.95;83.32;97252.05;108743;1267;25405;-78
2023/08/11 00:04:03;;;;;;;4.30;3.30;;;;;;;12.89;83.23;97251.44;108704;1250;22534;-78
2023/08/11 00:06:35;;;;;;;3.70;3.40;;;;;;;12.84;83.28;97250.84;108725;1273;23340;-78
2023/08/11 00:09:08;;;;;;;4.30;3.30;;;;;;;12.84;83.44;97249.46;108679;1267;22943;-78
2023/08/11 00:11:41;;;;;;;3.60;3.30;;;;;;;12.85;83.52;97253.40;108708;1267;22537;-78
2023/08/11 00:14:14;;;;;;;4.90;3.70;;;;;;;12.87;83.62;97252.63;108729;1273;22514;-78
2023/08/11 00:16:45;;;;;;;4.50;3.90;;;;;;;12.87;83.48;97252.09;108729;1273;22595;-78
2023/08/11 00:19:16;;;;;;;4.80;3.20;;;;;;;12.86;83.43;97251.95;108675;1273;26650;-78
2023/08/11 00:21:47;;;;;;;4.80;3.60;;;;;;;12.88;83.53;97252.31;108703;1273;22562;-78
2023/08/11 00:24:20;;;;;;;5.60;4.00;;;;;;;12.88;83.41;97252.56;108717;1273;22638;-78
2023/08/11 00:26:53;;;;;;;4.40;3.30;;;;;;;12.87;83.31;97251.98;108686;1273;22607;-78
2023/08/11 00:29:25;;;;;;;4.90;3.70;;;;;;;12.85;83.26;97249.88;108641;1273;22520;-78
2023/08/11 00:31:56;;;;;;;4.80;3.40;;;;;;;12.85;83.31;97248.30;108735;1273;22521;-78
2023/08/11 00:34:28;;;;;;;4.60;3.80;;;;;;;12.85;83.32;97246.85;108692;1270;22514;-78
2023/08/11 00:36:59;;;;;;;4.70;3.60;;;;;;;12.85;83.33;97246.89;108742;1270;25357;-78
2023/08/11 00:39:33;;;;;;;5.30;3.80;;;;;;;12.89;83.48;97246.06;108684;1267;25453;-78
2023/08/11 00:42:09;;;;;;;4.10;3.50;;;;;;;12.93;83.49;97243.58;108680;1273;25353;-78
2023/08/11 00:44:41;;;;;;;3.60;3.20;;;;;;;12.97;83.44;97241.92;108715;1270;22571;-78
2023/08/11 00:47:15;;;;;;;4.40;3.70;;;;;;;13.00;83.45;97243.96;108708;1273;22525;-78
2023/08/11 00:49:46;;;;;;;3.40;2.90;;;;;;;13.04;83.34;97241.76;108735;1251;22528;-78
2023/08/11 00:52:18;;;;;;;3.90;3.40;;;;;;;13.05;83.31;97241.31;108703;1273;22513;-78
2023/08/11 00:54:49;;;;;;;6.20;3.30;;;;;;;13.05;83.24;97240.30;108725;1273;22520;-78
2023/08/11 00:57:21;;;;;;;4.40;3.70;;;;;;;13.04;83.12;97237.59;108725;1273;22523;-78
2023/08/11 00:59:54;;;;;;;5.70;3.70;;;;;;;13.02;83.09;97235.91;108705;1273;22518;-78
2023/08/11 01:02:26;;;;;;;4.70;3.70;;;;;;;13.03;83.01;97240.48;108714;1273;22530;-78
2023/08/11 01:04:57;;;;;;;4.80;3.70;;;;;;;13.00;82.88;97236.09;108705;1269;22539;-78
2023/08/11 01:07:43;;;;;;;4.10;3.40;;;;;;;12.96;82.90;97238.15;108692;1266;22525;-78
2023/08/11 01:10:21;;;;;;;6.40;3.80;;;;;;;12.93;82.83;97240.59;108666;1273;22512;-78
2023/08/11 01:13:01;;;;;;;4.10;3.40;;;;;;;12.91;82.88;97236.78;108735;1273;24215;-78
2023/08/11 01:15:38;;;;;;;4.70;3.60;;;;;;;12.89;82.87;97237.87;108756;1273;24215;-78
2023/08/11 01:18:12;;;;;;;5.10;3.40;;;;;;;12.88;82.84;97241.23;108702;1267;22523;-78
2023/08/11 01:20:44;;;;;;;4.80;3.60;;;;;;;12.89;82.82;97242.45;108708;1273;25480;-78
2023/08/11 01:23:23;;;;;;;4.70;3.80;;;;;;;12.87;82.80;97240.17;108676;1273;22620;-78
2023/08/11 01:25:56;;;;;;;4.90;3.90;;;;;;;12.85;82.77;97239.61;108709;1267;22524;-78
2023/08/11 01:28:27;;;;;;;3.90;2.70;;;;;;;12.87;82.84;97239.55;108706;1272;24381;-78
2023/08/11 01:30:59;;;;;;;4.20;3.30;;;;;;;12.86;82.69;97238.75;108660;1273;22540;-78
2023/08/11 01:33:31;;;;;;;4.70;3.60;;;;;;;12.81;82.56;97234.36;108733;1273;22515;-78
2023/08/11 01:36:03;;;;;;;4.90;3.50;;;;;;;12.78;82.66;97235.59;108726;1273;22538;-78
2023/08/11 01:38:35;;;;;;;3.40;3.10;;;;;;;12.78;82.72;97239.52;108690;1273;22511;-78
2023/08/11 01:41:09;;;;;;;12.50;4.40;;;;;;;12.75;82.55;97236.27;108650;1273;24924;-78
2023/08/11 01:43:42;;;;;;;5.70;3.30;;;;;;;12.71;82.55;97235.55;108723;1266;22562;-78
2023/08/11 01:46:14;;;;;;;5.00;3.40;;;;;;;12.70;82.71;97231.98;108695;1273;22529;-78
2023/08/11 01:48:46;;;;;;;3.50;3.20;;;;;;;12.70;82.57;97232.04;108697;1266;22596;-78
2023/08/11 01:51:17;;;;;;;4.20;3.30;;;;;;;12.68;82.70;97233.71;108725;1273;25459;-78
2023/08/11 01:53:50;;;;;;;3.50;3.00;;;;;;;12.66;82.53;97229.61;108694;1273;24439;-78
2023/08/11 01:56:23;;;;;;;6.00;4.10;;;;;;;12.65;82.73;97231.00;108653;1273;22525;-78
2023/08/11 01:58:57;;;;;;;4.60;3.80;;;;;;;12.65;82.65;97234.67;108634;1273;22710;-78
2023/08/11 02:01:28;;;;;;;6.40;3.50;;;;;;;12.62;82.69;97233.79;108696;1269;22671;-78
2023/08/11 02:04:00;;;;;;;4.60;3.50;;;;;;;12.60;82.64;97236.84;108695;1267;22515;-78
2023/08/11 02:06:32;;;;;;;5.90;3.50;;;;;;;12.59;82.82;97238.49;108655;1273;22518;-78
2023/08/11 02:09:04;;;;;;;5.00;3.50;;;;;;;12.61;82.88;97239.06;108647;1273;22529;-78
2023/08/11 02:11:38;;;;;;;4.20;3.20;;;;;;;12.61;82.89;97239.33;108632;1273;22634;-78
2023/08/11 02:14:10;;;;;;;5.10;3.60;;;;;;;12.62;82.88;97239.48;108710;1266;22522;-78
2023/08/11 02:16:41;;;;;;;4.00;3.30;;;;;;;12.63;82.78;97240.33;108683;1267;22504;-78
2023/08/11 02:19:13;;;;;;;4.90;3.60;;;;;;;12.64;82.85;97241.86;108681;1273;22557;-78
2023/08/11 02:21:44;;;;;;;4.20;3.60;;;;;;;12.63;82.73;97243.84;108678;1273;22521;-78
2023/08/11 02:24:16;;;;;;;3.90;3.30;;;;;;;12.62;82.83;97238.84;108696;1266;22514;-79
2023/08/11 02:26:48;;;;;;;4.70;3.40;;;;;;;12.63;82.79;97241.71;108693;1266;22661;-79
2023/08/11 02:29:22;;;;;;;6.50;3.40;;;;;;;12.59;82.65;97241.36;108669;1266;22537;-79
2023/08/11 02:31:53;;;;;;;3.70;3.30;;;;;;;12.57;82.80;97243.20;108718;1267;22513;-79
2023/08/11 02:34:25;;;;;;;6.00;3.70;;;;;;;12.57;82.88;97241.98;108709;1272;22523;-78
2023/08/11 02:36:57;;;;;;;4.60;3.50;;;;;;;12.57;82.90;97240.91;108742;1269;25475;-79
2023/08/11 02:39:31;;;;;;;4.30;3.60;;;;;;;12.58;82.98;97241.00;108677;1266;23122;-79
2023/08/11 02:42:02;;;;;;;4.80;3.70;;;;;;;12.59;83.01;97246.69;108787;1266;22567;-78
2023/08/11 02:44:34;;;;;;;4.50;3.30;;;;;;;12.59;82.97;97244.24;108814;1273;23084;-78
2023/08/11 02:47:05;;;;;;;6.80;3.80;;;;;;;12.58;82.88;97246.70;108808;1269;23023;-78
2023/08/11 02:49:36;;;;;;;4.10;3.50;;;;;;;12.54;82.82;97249.39;108792;1273;22543;-79
2023/08/11 02:52:09;;;;;;;5.00;3.90;;;;;;;12.52;82.96;97246.02;108870;1273;22541;-78
2023/08/11 02:54:44;;;;;;;4.70;3.60;;;;;;;12.52;83.04;97250.48;108672;1269;22557;-79
2023/08/11 02:57:15;;;;;;;5.80;3.60;;;;;;;12.50;83.08;97248.59;108700;1273;22520;-79
2023/08/11 02:59:49;;;;;;;5.80;3.50;;;;;;;12.51;83.10;97249.59;108686;1273;23167;-79
2023/08/11 03:02:23;;;;;;;5.40;3.70;;;;;;;12.52;83.13;97251.02;108673;1273;22536;-76
2023/08/11 03:04:54;;;;;;;4.50;3.30;;;;;;;12.52;83.15;97253.10;108685;1273;22513;-78
2023/08/11 03:07:26;;;;;;;3.70;3.30;;;;;;;12.48;83.05;97255.24;108687;1273;23812;-78
2023/08/11 03:09:57;;;;;;;5.00;4.10;;;;;;;12.46;83.12;97256.06;108757;1269;25335;-78
2023/08/11 03:12:29;;;;;;;4.30;3.70;;;;;;;12.46;83.22;97254.63;108708;1267;25262;-78
2023/08/11 03:15:04;;;;;;;5.80;3.90;;;;;;;12.48;83.30;97258.71;108657;1273;23883;-78
2023/08/11 03:17:36;;;;;;;6.40;4.10;;;;;;;12.48;83.31;97262.96;108713;1270;22953;-78
2023/08/11 03:20:12;;;;;;;5.40;3.70;;;;;;;12.48;83.29;97264.40;108704;1273;25281;-78
2023/08/11 03:22:45;;;;;;;5.10;3.60;;;;;;;12.49;83.26;97264.61;108750;1273;22624;-78
2023/08/11 03:25:17;;;;;;;4.80;3.90;;;;;;;12.47;83.15;97265.14;108679;1267;22522;-78
2023/08/11 03:27:50;;;;;;;5.00;3.40;;;;;;;12.44;83.09;97261.77;108655;1269;22509;-78
2023/08/11 03:30:21;;;;;;;6.10;3.60;;;;;;;12.41;83.07;97265.56;108825;1266;22545;-78
2023/08/11 03:32:55;;;;;;;4.30;3.60;;;;;;;12.40;83.20;97265.78;108792;1273;22527;-78
2023/08/11 03:35:27;;;;;;;5.10;3.80;;;;;;;12.40;83.20;97264.02;108752;1266;22526;-78
2023/08/11 03:37:59;;;;;;;5.40;3.70;;;;;;;12.39;83.19;97265.95;108705;1266;25479;-78
2023/08/11 03:40:32;;;;;;;4.60;3.40;;;;;;;12.38;83.13;97266.58;108678;1273;22628;-78
2023/08/11 03:43:03;;;;;;;4.60;3.60;;;;;;;12.34;83.11;97264.26;108709;1273;22617;-78
2023/08/11 03:45:35;;;;;;;4.40;3.90;;;;;;;12.33;83.20;97266.48;108718;1273;25220;-78
2023/08/11 03:48:07;;;;;;;5.40;3.50;;;;;;;12.33;83.27;97267.29;108683;1273;22524;-78
2023/08/11 03:50:39;;;;;;;5.90;3.80;;;;;;;12.36;83.36;97271.73;108704;1266;25412;-78
2023/08/11 03:53:10;;;;;;;4.60;3.70;;;;;;;12.37;83.34;97271.25;108689;1266;22755;-78
2023/08/11 03:55:43;;;;;;;3.80;3.40;;;;;;;12.39;83.53;97274.94;108697;1273;22702;-78
2023/08/11 03:58:15;;;;;;;5.90;3.80;;;;;;;12.44;83.61;97279.00;108660;1273;25288;-78
2023/08/11 04:00:48;;;;;;;4.80;4.20;;;;;;;12.48;83.68;97278.08;108717;1273;26585;-78
2023/08/11 04:03:22;;;;;;;5.00;3.90;;;;;;;12.52;83.72;97277.78;108696;1273;22547;-78
2023/08/11 04:05:53;;;;;;;3.70;3.30;;;;;;;12.57;83.72;97278.77;108692;1273;22612;-78
2023/08/11 04:08:26;;;;;;;5.50;4.00;;;;;;;12.60;83.76;97276.73;108694;1273;22515;-78
2023/08/11 04:11:00;;;;;;;4.40;4.00;;;;;;;12.64;83.76;97279.41;108728;1273;22638;-78
2023/08/11 04:13:32;;;;;;;5.60;4.00;;;;;;;12.67;83.79;97276.98;108722;1273;22939;-78
2023/08/11 04:16:04;;;;;;;4.50;3.50;;;;;;;12.71;83.80;97278.06;108702;1270;22566;-78
2023/08/11 04:18:35;;;;;;;4.00;3.60;;;;;;;12.72;83.69;97277.84;108667;1266;23953;-78
2023/08/11 04:21:07;;;;;;;5.00;4.30;;;;;;;12.70;83.66;97276.52;108693;1266;22569;-78
2023/08/11 04:23:38;;;;;;;5.60;3.90;;;;;;;12.71;83.84;97278.17;108724;1269;22514;-78
2023/08/11 04:26:11;;;;;;;4.70;4.10;;;;;;;12.74;83.80;97274.73;108693;1273;22541;-78
2023/08/11 04:28:43;;;;;;;4.80;3.70;;;;;;;12.77;83.88;97277.01;108605;1273;22522;-78
2023/08/11 04:31:15;;;;;;;4.30;3.90;;;;;;;12.82;84.06;97273.36;108716;1272;23724;-78
2023/08/11 04:33:47;;;;;;;5.00;4.50;;;;;;;12.87;84.02;97276.73;108710;1266;23456;-78
2023/08/11 04:36:19;;;;;;;5.10;3.80;;;;;;;12.94;84.27;97274.18;108697;1273;22515;-78
2023/08/11 04:38:51;;;;;;;4.60;3.70;;;;;;;13.07;84.37;97276.50;108655;1269;23027;-78
2023/08/11 04:41:26;;;;;;;5.20;3.70;;;;;;;13.26;84.48;97278.88;108689;1273;22511;-78
2023/08/11 04:44:00;;;;;;;5.20;3.90;;;;;;;13.53;84.37;97281.95;108696;1266;22525;-78
2023/08/11 04:46:32;;;;;;;5.20;3.50;;;;;;;14.04;84.99;97282.34;108710;1273;22561;-78
2023/08/11 04:49:04;;;;;;;5.50;3.60;;;;;;;14.98;84.90;97283.90;108696;1272;22522;-78
2023/08/11 04:51:36;;;;;;;3.60;3.30;;;;;;;16.01;84.03;97285.41;108721;1266;23050;-78
2023/08/11 04:54:12;;;;;;;4.10;3.30;;;;;;;17.00;82.33;97284.88;108695;1273;22530;-78
2023/08/11 04:56:45;;;;;;;3.90;3.20;;;;;;;17.86;80.42;97286.05;108701;1273;22525;-78
2023/08/11 04:59:18;;;;;;;4.40;3.20;;;;;;;18.64;78.49;97287.54;108651;1269;26420;-78
2023/08/11 05:01:50;;;;;;;3.90;2.70;;;;;;;19.32;76.73;97291.67;108674;1273;25384;-78
2023/08/11 05:04:24;;;;;;;4.20;2.70;;;;;;;19.86;74.65;97295.73;108789;1266;22511;-78
2023/08/11 05:06:55;;;;;;;4.30;2.80;;;;;;;20.11;72.85;97299.20;108686;1266;22529;-78
2023/08/11 05:09:27;;;;;;;4.60;2.90;;;;;;;20.49;72.06;97302.52;108699;1273;22532;-78
2023/08/11 05:11:59;;;;;;;3.60;2.80;;;;;;;20.86;70.28;97304.20;108739;1273;25319;-78
2023/08/11 05:14:30;;;;;;;3.50;2.90;;;;;;;21.20;69.25;97299.48;108722;1267;22524;-78
2023/08/11 05:17:02;;;;;;;2.90;2.60;;;;;;;21.67;68.43;97296.01;108729;1273;22521;-78
2023/08/11 05:19:36;;;;;;;3.50;2.50;;;;;;;22.11;67.06;97297.81;108715;1266;24229;-78
2023/08/11 05:22:08;;;;;;;3.00;2.70;;;;;;;22.37;65.50;97300.91;108685;1266;24230;-78
2023/08/11 05:24:40;;;;;;;3.00;2.60;;;;;;;22.44;64.39;97301.58;108691;1273;22514;-78
2023/08/11 05:27:12;;;;;;;3.00;2.60;;;;;;;22.71;63.83;97296.73;108674;1273;22532;-78
2023/08/11 05:29:47;;;;;;;3.60;3.00;;;;;;;22.97;62.74;97296.42;108672;1273;22527;-79
2023/08/11 05:32:18;;;;;;;2.90;2.60;;;;;;;23.07;61.54;97295.33;108683;1266;22527;-79
2023/08/11 05:34:51;;;;;;;3.60;3.10;;;;;;;23.25;61.12;97297.23;108647;1273;24289;-79
2023/08/11 05:37:24;;;;;;;3.00;2.70;;;;;;;23.69;60.87;97301.16;108673;1266;22529;-79
2023/08/11 05:39:55;;;;;;;4.30;3.20;;;;;;;23.81;59.47;97297.32;108701;1273;22534;-79
2023/08/11 05:42:26;;;;;;;2.60;2.40;;;;;;;23.83;58.91;97300.85;108685;1266;22545;-79
2023/08/11 05:44:57;;;;;;;4.20;3.00;;;;;;;24.18;58.06;97299.79;108720;1269;25426;-79
2023/08/11 05:47:28;;;;;;;3.10;2.70;;;;;;;24.10;56.70;97297.14;108660;1273;22532;-79
2023/08/11 05:50:00;;;;;;;3.80;2.50;;;;;;;24.09;56.62;97295.33;108696;1273;22514;-79
2023/08/11 05:52:33;;;;;;;4.60;3.20;;;;;;;24.16;56.13;97297.27;108683;1266;22525;-78
2023/08/11 05:55:05;;;;;;;4.50;2.80;;;;;;;24.43;55.66;97300.97;108718;1273;22930;-78
2023/08/11 05:57:38;;;;;;;2.90;2.40;;;;;;;24.60;54.85;97306.79;108641;1272;22524;-78
2023/08/11 06:00:12;;;;;;;3.00;2.40;;;;;;;24.75;54.52;97305.19;108657;1273;24412;-79
2023/08/11 06:02:45;;;;;;;2.90;2.60;;;;;;;24.87;53.97;97304.36;108731;1273;22534;-79
2023/08/11 06:05:21;;;;;;;2.90;2.60;;;;;;;24.75;52.85;97305.58;108727;1273;22530;-78
2023/08/11 06:07:53;;;;;;;2.90;2.60;;;;;;;24.64;52.98;97305.25;108617;1273;25256;-78
2023/08/11 06:10:27;;;;;;;3.60;2.60;;;;;;;24.71;52.88;97312.77;108700;1273;22507;-78
2023/08/11 06:13:03;;;;;;;4.60;2.70;;;;;;;24.93;52.52;97309.69;108686;1265;24266;-79
2023/08/11 06:15:35;;;;;;;4.80;2.90;;;;;;;25.18;52.48;97309.56;108680;1273;25042;-78
2023/08/11 06:18:09;;;;;;;3.10;2.80;;;;;;;25.48;52.18;97312.41;108738;1273;22607;-79
2023/08/11 06:20:41;;;;;;;2.70;2.50;;;;;;;25.70;51.50;97310.15;108728;1269;26498;-78
2023/08/11 06:23:13;;;;;;;4.20;3.30;;;;;;;25.64;51.10;97310.02;108696;1273;22543;-79
2023/08/11 06:25:45;;;;;;;3.10;2.80;;;;;;;25.54;50.76;97311.36;108722;1269;23162;-78
2023/08/11 06:28:17;;;;;;;4.10;2.70;;;;;;;25.61;50.89;97312.13;108627;1269;25328;-78
2023/08/11 06:30:49;;;;;;;3.50;3.00;;;;;;;25.95;50.79;97315.18;108698;1273;22555;-79
2023/08/11 06:33:21;;;;;;;3.10;2.60;;;;;;;26.15;50.35;97314.59;108803;1273;22522;-79
2023/08/11 06:35:54;;;;;;;3.20;2.70;;;;;;;26.35;49.71;97312.23;108703;1273;26426;-78
2023/08/11 06:38:26;;;;;;;3.40;2.90;;;;;;;26.45;49.24;97313.02;108695;1273;22526;-78
2023/08/11 06:40:58;;;;;;;3.30;2.90;;;;;;;26.47;48.78;97315.61;108724;1269;22532;-78
2023/08/11 06:43:30;;;;;;;4.30;3.40;;;;;;;26.68;48.78;97317.10;108738;1273;22545;-78
2023/08/11 06:46:02;;;;;;;4.20;3.20;;;;;;;26.57;48.20;97316.01;108617;1273;22540;-79
2023/08/11 06:48:35;;;;;;;5.40;3.20;;;;;;;26.48;48.18;97319.97;108687;1266;22651;-78
2023/08/11 06:51:06;;;;;;;5.20;3.40;;;;;;;26.62;48.02;97322.91;108700;1273;24212;-76
2023/08/11 06:53:38;;;;;;;5.80;3.20;;;;;;;26.67;47.93;97322.30;108702;1266;22596;-78
2023/08/11 06:56:09;;;;;;;3.70;3.20;;;;;;;27.09;47.99;97324.93;108720;1266;22524;-78
2023/08/11 06:58:42;;;;;;;3.80;3.00;;;;;;;27.33;47.65;97324.80;108678;1273;22534;-78
2023/08/11 07:01:17;;;;;;;4.30;3.00;;;;;;;27.57;47.87;97325.23;108726;1273;22534;-79
2023/08/11 07:03:48;;;;;;;4.90;3.10;;;;;;;27.74;46.95;97321.95;108720;1267;22541;-78
2023/08/11 07:06:20;;;;;;;4.60;3.10;;;;;;;27.71;46.45;97324.80;108678;1266;22516;-79
2023/08/11 07:08:53;;;;;;;2.90;2.50;;;;;;;27.69;46.36;97324.30;108650;1273;25323;-78
2023/08/11 07:11:25;;;;;;;5.00;2.80;;;;;;;27.87;46.31;97322.71;108700;1270;22514;-78
2023/08/11 07:13:56;;;;;;;6.20;3.30;;;;;;;28.10;46.44;97324.55;108709;1266;22518;-78
2023/08/11 07:16:28;;;;;;;4.90;3.00;;;;;;;28.31;45.90;97324.79;108692;1270;22514;-78
2023/08/11 07:19:00;;;;;;;3.60;2.80;;;;;;;28.42;45.69;97322.85;108661;1273;22567;-79
2023/08/11 07:21:33;;;;;;;4.40;3.00;;;;;;;28.43;45.17;97326.98;108677;1273;22523;-78
2023/08/11 07:24:06;;;;;;;4.80;3.20;;;;;;;28.24;45.06;97329.77;108705;1273;25225;-78
2023/08/11 07:26:37;;;;;;;4.20;2.90;;;;;;;28.39;45.32;97331.01;108688;1269;25408;-78
2023/08/11 07:29:08;;;;;;;3.50;2.80;;;;;;;28.41;44.65;97331.26;108688;1273;23671;-78
2023/08/11 07:31:40;;;;;;;3.90;2.70;;;;;;;28.24;44.60;97331.77;108663;1273;24295;-78
2023/08/11 07:34:12;;;;;;;5.60;3.10;;;;;;;28.17;44.45;97335.13;108675;1273;22525;-78
2023/08/11 07:36:45;;;;;;;3.90;3.00;;;;;;;28.26;44.57;97337.89;108717;1269;24209;-78
2023/08/11 07:39:18;;;;;;;5.40;2.90;;;;;;;28.40;44.45;97335.98;108685;1269;22554;-78
2023/08/11 07:41:50;;;;;;;4.60;2.40;;;;;;;28.62;44.00;97335.15;108716;1273;22518;-78
2023/08/11 07:44:22;;;;;;;4.20;2.50;;;;;;;28.51;42.89;97341.30;108738;1266;25339;-79
2023/08/11 07:46:54;;;;;;;4.60;2.50;;;;;;;28.10;42.21;97340.52;108714;1273;22520;-79
2023/08/11 07:49:25;;;;;;;3.60;2.50;;;;;;;27.73;42.70;97340.23;108700;1273;22572;-78
2023/08/11 07:51:58;;;;;;;5.10;2.20;;;;;;;28.00;42.52;97341.28;108671;1273;22541;-79
2023/08/11 07:54:29;;;;;;;4.70;2.70;;;;;;;28.28;42.32;97337.92;108735;1273;22546;-78
2023/08/11 07:57:01;;;;;;;5.10;3.10;;;;;;;27.68;41.38;97340.77;108733;1269;25369;-78
2023/08/11 07:59:33;;;;;;;4.80;2.70;;;;;;;27.72;42.21;97342.07;108643;1266;22556;-78
2023/08/11 08:02:05;;;;;;;3.30;2.70;;;;;;;27.89;41.78;97340.24;108698;1273;22983;-79
2023/08/11 08:04:38;;;;;;;4.30;2.50;;;;;;;27.83;42.46;97342.59;108751;1267;22522;-79
2023/08/11 08:07:10;;;;;;;3.60;2.10;;;;;;;28.22;41.57;97338.39;108679;1273;25981;-79
2023/08/11 08:09:42;;;;;;;3.30;2.60;;;;;;;28.15;40.63;97345.02;108690;1269;23049;-79
2023/08/11 08:12:16;;;;;;;5.30;2.80;;;;;;;27.92;40.62;97343.77;108703;1273;22518;-79
2023/08/11 08:14:48;;;;;;;4.70;2.70;;;;;;;27.76;40.71;97341.05;108743;1273;22524;-79
2023/08/11 08:17:19;;;;;;;2.90;2.40;;;;;;;27.39;40.65;97340.89;108687;1273;22581;-79
2023/08/11 08:19:50;;;;;;;3.50;2.30;;;;;;;26.77;40.23;97347.79;108699;1273;22525;-79
2023/08/11 08:22:21;;;;;;;4.40;2.50;;;;;;;26.47;40.66;97350.10;108718;1273;25338;-79
2023/08/11 08:24:53;;;;;;;3.50;2.40;;;;;;;26.19;41.17;97353.27;108727;1270;22760;-79
2023/08/11 08:27:24;;;;;;;3.60;2.10;;;;;;;26.02;41.12;97356.44;108664;1272;25515;-79
2023/08/11 08:29:56;;;;;;;3.00;1.80;;;;;;;25.64;41.31;97354.48;108722;1270;22558;-79
2023/08/11 08:32:29;;;;;;;3.00;2.10;;;;;;;25.55;40.88;97355.98;108696;1272;22524;-79
2023/08/11 08:35:03;;;;;;;4.40;2.40;;;;;;;25.29;40.88;97353.98;108666;1273;22568;-78
2023/08/11 08:37:34;;;;;;;3.30;2.40;;;;;;;24.57;41.55;97351.65;108663;1272;22517;-78
2023/08/11 08:40:08;;;;;;;2.70;1.90;;;;;;;24.39;42.17;97351.58;108690;1273;22520;-78
2023/08/11 08:42:41;;;;;;;3.40;1.50;;;;;;;25.06;42.16;97358.42;108699;1273;22508;-79
2023/08/11 08:45:15;;;;;;;3.40;2.00;;;;;;;25.71;41.05;97353.23;108739;1273;22510;-78
2023/08/11 08:47:49;;;;;;;4.30;2.10;;;;;;;26.02;41.06;97354.96;108705;1266;24360;-79
2023/08/11 08:50:20;;;;;;;3.70;1.90;;;;;;;26.46;40.84;97356.06;108720;1273;24136;-79
2023/08/11 08:53:01;;;;;;;4.50;2.60;;;;;;;26.95;40.90;97351.24;108490;1273;238593;-78
2023/08/11 08:55:32;;;;;;;3.70;2.30;;;;;;;27.22;41.02;97355.36;108712;1273;22515;-78
2023/08/11 08:58:04;;;;;;;4.40;2.50;;;;;;;27.52;41.04;97354.74;108699;1272;22514;-78
2023/08/11 09:00:36;;;;;;;4.30;3.10;;;;;;;27.72;40.54;97353.06;108725;1266;22525;-79
2023/08/11 09:03:08;;;;;;;5.20;2.70;;;;;;;27.09;39.39;97357.59;108697;1266;22560;-78
2023/08/11 09:05:40;;;;;;;3.20;2.00;;;;;;;26.69;39.88;97351.30;108685;1273;22514;-78
2023/08/11 09:08:12;;;;;;;3.20;2.50;;;;;;;26.56;39.92;97356.48;108704;1265;22534;-79
2023/08/11 09:10:44;;;;;;;3.50;2.70;;;;;;;26.03;40.16;97359.27;108707;1273;22514;-78
2023/08/11 09:13:17;;;;;;;3.70;2.40;;;;;;;25.50;40.11;97359.55;108741;1272;24221;-79
2023/08/11 09:15:48;;;;;;;6.60;2.80;;;;;;;25.11;40.77;97363.06;108716;1273;22480;-78
2023/08/11 09:18:20;;;;;;;4.00;2.00;;;;;;;24.74;40.52;97361.42;108680;1269;22525;-78
2023/08/11 09:20:51;;;;;;;5.50;1.80;;;;;;;24.68;41.78;97360.27;108681;1273;24276;-78
2023/08/11 09:23:22;;;;;;;5.10;1.60;;;;;;;24.98;41.36;97360.12;108693;1267;25545;-78
2023/08/11 09:25:56;;;;;;;3.30;2.00;;;;;;;25.15;41.16;97362.85;108674;1273;23470;-78
2023/08/11 09:28:32;;;;;;;3.10;2.10;;;;;;;25.18;41.30;97363.92;108610;1271;22521;-78
2023/08/11 09:31:03;;;;;;;1.80;1.30;;;;;;;24.75;40.38;97359.89;108742;1273;24269;-78
2023/08/11 09:33:38;;;;;;;2.50;1.80;;;;;;;24.13;40.03;97357.48;108687;1266;22582;-78
2023/08/11 09:36:10;;;;;;;2.70;1.70;;;;;;;23.73;40.27;97359.74;108735;1273;22548;-78
2023/08/11 09:38:44;;;;;;;3.30;2.00;;;;;;;23.35;40.29;97362.91;108666;1273;25406;-78
2023/08/11 09:41:17;;;;;;;2.30;1.70;;;;;;;23.18;40.82;97362.17;108685;1269;22527;-78
2023/08/11 09:43:53;;;;;;;4.80;2.30;;;;;;;23.15;41.08;97358.84;108706;1273;27945;-78
2023/08/11 09:46:24;;;;;;;3.40;1.80;;;;;;;23.16;41.15;97357.41;108753;1273;22527;-78
2023/08/11 09:48:56;;;;;;;3.70;2.00;;;;;;;23.21;41.75;97354.85;108706;1267;22625;-78
2023/08/11 09:51:28;;;;;;;5.00;2.10;;;;;;;23.25;42.74;97356.05;108682;1269;22753;-78
2023/08/11 09:54:05;;;;;;;2.70;1.90;;;;;;;23.35;42.56;97351.70;108735;1273;24232;-79
2023/08/11 09:56:40;;;;;;;5.00;2.10;;;;;;;23.28;42.18;97346.95;108721;1273;22535;-78
2023/08/11 09:59:13;;;;;;;3.40;2.20;;;;;;;23.10;41.68;97347.42;108698;1273;22534;-78
2023/08/11 10:01:47;;;;;;;6.90;2.20;;;;;;;23.03;41.82;97346.36;108705;1267;22522;-78
2023/08/11 10:04:24;;;;;;;3.20;1.70;;;;;;;23.15;42.24;97346.33;108746;1273;24387;-78
2023/08/11 10:07:00;;;;;;;3.80;1.50;;;;;;;23.10;41.93;97343.86;108651;1262;25387;-78
2023/08/11 10:09:33;;;;;;;3.20;1.80;;;;;;;22.95;41.97;97342.20;108724;1253;22515;-78
2023/08/11 10:12:08;;;;;;;4.00;2.00;;;;;;;22.90;41.70;97344.20;108687;1273;22520;-78
2023/08/11 10:14:42;;;;;;;3.70;1.80;;;;;;;22.83;41.57;97343.98;108738;1273;22518;-78
2023/08/11 10:17:14;;;;;;;3.10;2.10;;;;;;;22.73;41.31;97341.09;108713;1269;22511;-78
2023/08/11 10:19:47;;;;;;;3.60;2.00;;;;;;;22.83;41.86;97347.29;108685;1273;22661;-78
2023/08/11 10:22:19;;;;;;;3.30;1.80;;;;;;;23.00;41.91;97343.11;108689;1273;22596;-78
2023/08/11 10:24:50;;;;;;;4.70;1.80;;;;;;;23.15;41.51;97340.77;108704;1273;22580;-78
2023/08/11 10:27:22;;;;;;;3.90;1.90;;;;;;;23.09;41.70;97342.84;108692;1273;23294;-78
2023/08/11 10:29:53;;;;;;;4.00;2.90;;;;;;;23.01;41.92;97341.28;108709;1273;22548;-78
2023/08/11 10:32:32;;;;;;;18.10;15.90;;;;;;;23.08;42.63;97341.95;108650;1272;22516;-78
2023/08/11 10:35:06;;;;;;;14.40;13.00;;;;;;;23.15;42.80;97344.08;108681;1273;22542;-78
2023/08/11 10:37:38;;;;;;;9.60;7.20;;;;;;;23.18;43.08;97348.88;108746;1273;22511;-78
2023/08/11 10:40:11;;;;;;;7.20;4.80;;;;;;;23.09;43.44;97348.55;108687;1273;22521;-78
2023/08/11 10:42:43;;;;;;;31.90;28.40;;;;;;;22.82;42.74;97350.35;108747;1266;22551;-78
2023/08/11 10:45:16;;;;;;;12.50;8.00;;;;;;;22.44;42.60;97350.06;108668;1273;22525;-78
2023/08/11 10:47:54;;;;;;;3.40;2.20;;;;;;;22.33;43.89;97345.31;108692;1273;23062;-78
2023/08/11 10:50:27;;;;;;;4.40;2.60;;;;;;;22.57;44.18;97345.46;108690;1273;22539;-78
2023/08/11 10:53:09;;;;;;;8.00;4.10;;;;;;;22.76;44.81;97343.20;108704;1269;22518;-78
2023/08/11 10:55:42;;;;;;;5.90;4.10;;;;;;;22.88;43.78;97342.34;108707;1265;22560;-78
2023/08/11 10:58:15;;;;;;;16.10;8.80;;;;;;;22.83;43.35;97339.51;108710;1273;22540;-78
2023/08/11 11:00:46;;;;;;;4.40;2.80;;;;;;;22.64;42.80;97340.10;108677;1273;22536;-78
2023/08/11 11:03:18;;;;;;;4.10;2.20;;;;;;;22.54;43.00;97339.02;108694;1273;23587;-78
2023/08/11 11:05:51;;;;;;;2.80;1.90;;;;;;;22.46;42.92;97338.64;108689;1263;25201;-78
2023/08/11 11:08:23;;;;;;;3.70;1.70;;;;;;;22.31;42.36;97338.35;108725;1269;22520;-78
2023/08/11 11:10:56;;;;;;;3.00;1.60;;;;;;;22.18;42.49;97337.41;108661;1273;22552;-78
2023/08/11 11:13:29;;;;;;;5.80;3.70;;;;;;;22.03;42.29;97338.96;108745;1273;22541;-78
2023/08/11 11:16:00;;;;;;;5.70;3.20;;;;;;;21.83;42.24;97341.45;108715;1266;22534;-78
2023/08/11 11:18:34;;;;;;;3.20;1.60;;;;;;;21.87;42.66;97336.17;108653;1273;23487;-78
2023/08/11 11:21:05;;;;;;;2.60;1.70;;;;;;;22.01;43.00;97336.25;108714;1273;22525;-78
2023/08/11 11:23:37;;;;;;;5.60;3.30;;;;;;;21.95;42.29;97336.13;108654;1273;22517;-78
2023/08/11 11:26:10;;;;;;;3.40;2.10;;;;;;;21.80;42.74;97335.48;108733;1273;25410;-78
2023/08/11 11:28:42;;;;;;;5.40;3.00;;;;;;;21.71;42.74;97334.02;108612;1269;22672;-77
2023/08/11 11:31:15;;;;;;;5.30;2.60;;;;;;;21.77;42.79;97331.51;108721;1269;22526;-78
2023/08/11 11:33:47;;;;;;;2.80;2.20;;;;;;;21.85;42.74;97330.63;108678;1273;22762;-78
2023/08/11 11:36:20;;;;;;;4.00;2.00;;;;;;;21.97;42.56;97333.49;108714;1272;22525;-78
2023/08/11 11:38:53;;;;;;;2.70;1.80;;;;;;;22.17;42.48;97330.98;108638;1266;22596;-78
2023/08/11 11:41:24;;;;;;;3.50;1.80;;;;;;;22.30;42.38;97329.77;108763;1267;22627;-78
2023/08/11 11:44:01;;;;;;;2.10;1.60;;;;;;;22.44;42.39;97330.07;108728;1273;22642;-78
2023/08/11 11:46:34;;;;;;;2.90;1.70;;;;;;;22.56;42.09;97328.58;108739;1273;22521;-78
2023/08/11 11:49:06;;;;;;;3.70;1.90;;;;;;;22.72;42.03;97327.77;108718;1267;22525;-78